createdAt,value
2018-02-18T00:01:33.276Z,92.00
2018-02-18T00:04:01.136Z,92.10
2018-02-18T00:06:29.035Z,92.10
2018-02-18T00:08:56.929Z,92.10
2018-02-18T00:11:24.862Z,92.00
2018-02-18T00:13:52.922Z,92.00
2018-02-18T00:16:20.872Z,92.00
2018-02-18T00:18:48.680Z,91.90
2018-02-18T00:21:16.598Z,92.00
2018-02-18T00:23:44.564Z,92.10
2018-02-18T00:26:12.442Z,92.10
2018-02-18T00:28:40.284Z,92.00
2018-02-18T00:31:09.003Z,91.70
2018-02-18T00:33:36.992Z,91.70
2018-02-18T00:36:04.968Z,91.90
2018-02-18T00:38:32.937Z,92.00
2018-02-18T00:41:00.887Z,92.00
2018-02-18T00:43:28.774Z,92.00
2018-02-18T00:45:56.723Z,92.00
2018-02-18T00:48:24.754Z,91.90
2018-02-18T00:50:52.718Z,92.00
2018-02-18T00:53:21.356Z,92.10
2018-02-18T00:55:49.320Z,92.10
2018-02-18T00:58:17.234Z,92.10
2018-02-18T01:00:45.863Z,92.10
2018-02-18T01:03:13.714Z,92.10
2018-02-18T01:05:41.534Z,92.20
2018-02-18T01:08:09.479Z,92.20
2018-02-18T01:10:37.327Z,92.20
2018-02-18T01:13:05.296Z,92.00
2018-02-18T01:15:33.279Z,92.10
2018-02-18T01:18:01.150Z,92.10
2018-02-18T01:20:29.110Z,92.00
2018-02-18T01:22:57.323Z,91.90
2018-02-18T01:25:25.871Z,91.90
2018-02-18T01:27:53.748Z,91.90
2018-02-18T01:30:21.571Z,91.90
2018-02-18T01:32:49.461Z,92.00
2018-02-18T01:35:18.161Z,92.00
2018-02-18T01:37:46.032Z,91.90
2018-02-18T01:40:13.906Z,92.00
2018-02-18T01:42:41.820Z,92.20
2018-02-18T01:45:09.714Z,92.50
2018-02-18T01:47:41.230Z,92.10
2018-02-18T01:50:18.054Z,91.90
2018-02-18T01:52:45.955Z,91.80
2018-02-18T01:55:14.612Z,91.90
2018-02-18T01:57:42.418Z,91.90
2018-02-18T02:00:10.374Z,91.90
2018-02-18T02:02:39.044Z,91.90
2018-02-18T02:05:06.924Z,91.90
2018-02-18T02:07:35.982Z,91.90
2018-02-18T02:10:04.318Z,91.90
2018-02-18T02:12:32.197Z,91.90
2018-02-18T02:15:00.943Z,91.70
2018-02-18T02:17:29.547Z,91.70
2018-02-18T02:19:57.445Z,91.70
2018-02-18T02:22:25.325Z,91.60
2018-02-18T02:24:53.364Z,91.70
2018-02-18T02:27:21.264Z,91.60
2018-02-18T02:29:49.275Z,91.70
2018-02-18T02:32:17.947Z,92.20
2018-02-18T02:34:46.579Z,92.30
2018-02-18T02:37:14.538Z,92.30
2018-02-18T02:39:42.355Z,92.20
2018-02-18T02:42:10.294Z,92.20
2018-02-18T02:44:38.980Z,92.10
2018-02-18T02:47:06.734Z,92.20
2018-02-18T02:49:35.419Z,92.10
2018-02-18T02:52:03.294Z,92.00
2018-02-18T02:54:31.216Z,91.60
2018-02-18T02:57:00.064Z,91.50
2018-02-18T02:59:28.024Z,91.60
2018-02-18T03:01:55.783Z,91.70
2018-02-18T03:04:23.810Z,91.80
2018-02-18T03:06:52.431Z,91.80
2018-02-18T03:09:20.275Z,91.80
2018-02-18T03:11:48.197Z,91.60
2018-02-18T03:14:16.081Z,91.60
2018-02-18T03:16:44.758Z,91.50
2018-02-18T03:19:13.456Z,91.50
2018-02-18T03:21:42.054Z,91.70
2018-02-18T03:24:09.998Z,91.70
2018-02-18T03:26:38.692Z,92.10
2018-02-18T03:29:07.318Z,92.50
2018-02-18T03:31:35.568Z,92.50
2018-02-18T03:34:03.790Z,92.60
2018-02-18T05:57:38.982Z,94.00
2018-02-18T06:00:24.587Z,93.90
2018-02-18T06:03:06.789Z,93.90
2018-02-18T06:05:42.836Z,93.70
2018-02-18T06:08:18.130Z,93.60
2018-02-18T06:10:52.577Z,93.70
2018-02-18T06:16:10.584Z,93.80
2018-02-18T06:18:43.762Z,93.70
2018-02-18T06:21:19.435Z,93.70
2018-02-18T06:24:21.721Z,93.70
2018-02-18T06:34:37.399Z,93.90
2018-02-18T06:37:17.543Z,93.70
2018-02-18T06:40:33.533Z,93.70
2018-02-18T06:44:33.805Z,93.80
2018-02-18T06:47:26.879Z,93.80
2018-02-18T06:50:11.995Z,93.90
2018-02-18T06:52:44.375Z,93.80
2018-02-18T06:55:17.199Z,93.90
2018-02-18T06:57:47.571Z,93.90
2018-02-18T07:00:30.923Z,93.80
2018-02-18T07:07:03.577Z,94.10
2018-02-18T07:09:36.271Z,94.00
2018-02-18T07:12:20.254Z,94.00
2018-02-18T07:14:55.358Z,94.00
2018-02-18T07:25:21.955Z,94.20
2018-02-18T07:28:06.188Z,94.10
2018-02-18T07:30:57.809Z,93.90
2018-02-18T07:33:30.389Z,94.00
2018-02-18T07:36:01.243Z,93.90
2018-02-18T07:41:45.677Z,94.20
2018-02-18T07:44:35.647Z,93.60
2018-02-18T07:50:31.025Z,93.50
2018-02-18T07:53:05.387Z,93.60
2018-02-18T07:55:41.310Z,93.50
2018-02-18T07:58:20.057Z,93.40
2018-02-18T08:01:29.882Z,93.60
2018-02-18T08:07:07.885Z,93.60
2018-02-18T08:09:49.296Z,93.50
2018-02-18T08:12:32.278Z,93.30
2018-02-18T08:15:12.382Z,93.20
2018-02-18T08:17:45.506Z,92.80
2018-02-18T08:20:19.080Z,92.80
2018-02-18T08:22:52.821Z,93.20
2018-02-18T08:25:28.316Z,93.20
2018-02-18T08:28:09.109Z,93.30
2018-02-18T08:30:50.978Z,93.20
2018-02-18T08:33:33.123Z,93.10
2018-02-18T08:43:38.468Z,93.10
2018-02-18T08:46:12.096Z,93.20
2018-02-18T08:48:57.494Z,93.30
2018-02-18T08:51:29.649Z,92.80
2018-02-18T08:54:02.929Z,92.70
2018-02-18T08:56:36.840Z,93.10
2018-02-18T08:59:10.840Z,93.10
2018-02-18T09:01:49.664Z,92.80
2018-02-18T09:04:25.831Z,93.00
2018-02-18T09:06:59.897Z,92.50
2018-02-18T09:18:57.931Z,92.70
2018-02-18T09:21:31.879Z,92.60
2018-02-18T09:24:08.279Z,93.00
2018-02-18T09:27:29.113Z,93.10
2018-02-18T09:30:07.824Z,92.90
2018-02-18T09:32:42.823Z,92.90
2018-02-18T09:35:32.128Z,92.30
2018-02-18T09:38:12.584Z,92.30
2018-02-18T09:51:12.202Z,92.30
2018-02-18T09:56:34.870Z,92.60
2018-02-18T10:02:20.943Z,91.80
2018-02-18T10:05:26.919Z,91.80
2018-02-18T10:21:20.039Z,91.30
2018-02-18T10:24:06.137Z,91.30
2018-02-18T10:31:52.378Z,91.90
2018-02-18T10:42:29.161Z,91.00
2018-02-18T10:49:01.619Z,90.40
2018-02-18T10:51:46.712Z,91.20
2018-02-18T11:29:58.056Z,90.90
2018-02-18T11:32:44.399Z,90.90
2018-02-18T11:35:52.989Z,91.40
2018-02-18T11:45:11.519Z,90.40
2018-02-18T12:26:29.718Z,83.70
2018-02-18T12:29:16.938Z,81.60
2018-02-18T12:35:26.176Z,76.00
2018-02-18T12:38:08.296Z,74.00
2018-02-18T12:47:03.015Z,71.10
2018-02-18T12:49:50.897Z,70.10
2018-02-18T12:52:39.613Z,65.30
2018-02-18T12:55:21.532Z,65.30
2018-02-18T12:58:00.985Z,64.00
2018-02-18T13:00:49.337Z,63.80
2018-02-18T13:07:32.967Z,64.50
2018-02-18T13:10:06.760Z,64.50
2018-02-18T13:13:00.476Z,63.80
2018-02-18T13:19:25.289Z,61.80
2018-02-18T13:22:19.986Z,63.30
2018-02-18T13:28:25.190Z,60.60
2018-02-18T13:31:24.991Z,61.30
2018-02-18T13:54:51.686Z,59.40
2018-02-18T13:57:38.918Z,59.50
2018-02-18T14:00:28.127Z,60.60
2018-02-18T14:08:29.024Z,60.10
2018-02-18T14:14:32.848Z,61.60
2018-02-18T14:21:25.976Z,62.10
2018-02-18T14:24:31.447Z,61.40
2018-02-18T14:33:23.345Z,62.00
2018-02-18T14:36:16.231Z,61.30
2018-02-18T14:39:13.504Z,61.40
2018-02-18T14:52:39.278Z,60.10
2018-02-18T14:59:02.460Z,59.70
2018-02-18T15:02:16.319Z,59.60
2018-02-18T15:09:16.061Z,59.30
2018-02-18T15:19:02.327Z,60.30
2018-02-18T15:31:19.718Z,60.30
2018-02-18T15:34:00.666Z,61.10
2018-02-18T15:36:40.192Z,61.20
2018-02-18T15:40:47.083Z,61.70
2018-02-18T15:43:26.923Z,61.60
2018-02-18T15:46:11.116Z,62.00
2018-02-18T15:49:24.024Z,62.00
2018-02-18T15:52:03.368Z,62.00
2018-02-18T15:54:58.516Z,62.50
2018-02-18T15:58:58.783Z,61.90
2018-02-18T16:02:05.556Z,61.80
2018-02-18T16:12:49.181Z,62.80
2018-02-18T16:15:50.401Z,63.00
2018-02-18T16:18:39.242Z,62.80
2018-02-18T16:21:51.764Z,63.30
2018-02-18T16:28:39.869Z,63.00
2018-02-18T16:31:25.820Z,63.50
2018-02-18T16:38:18.273Z,64.90
2018-02-18T16:41:07.440Z,65.80
2018-02-18T16:43:40.335Z,66.10
2018-02-18T16:46:11.757Z,66.50
2018-02-18T16:49:19.861Z,67.00
2018-02-18T16:52:01.961Z,67.40
2018-02-18T16:58:31.240Z,68.20
2018-02-18T17:01:36.079Z,68.40
2018-02-18T17:05:15.438Z,68.30
2018-02-18T17:11:33.734Z,68.80
2018-02-18T17:21:57.480Z,68.80
2018-02-18T17:25:03.807Z,68.50
2018-02-18T17:27:53.699Z,68.60
2018-02-18T17:30:41.980Z,69.00
2018-02-18T17:36:32.062Z,68.80
2018-02-18T17:39:32.723Z,68.50
2018-02-18T17:42:14.273Z,68.90
2018-02-18T17:44:58.004Z,69.20
2018-02-18T17:47:55.928Z,69.20
2018-02-18T17:53:32.254Z,69.80
2018-02-18T17:56:19.619Z,70.20
2018-02-18T17:59:06.973Z,70.40
2018-02-18T18:01:55.259Z,70.60
2018-02-18T18:05:13.614Z,71.00
2018-02-18T18:13:29.229Z,71.90
2018-02-18T18:31:31.762Z,72.20
2018-02-18T18:34:31.084Z,74.10
2018-02-18T18:40:23.496Z,76.30
2018-02-18T18:46:23.321Z,76.20
2018-02-18T18:52:32.509Z,76.00
2018-02-18T19:04:27.192Z,76.60
2018-02-18T19:07:08.854Z,76.90
2018-02-18T19:09:49.760Z,77.30
2018-02-18T19:17:13.751Z,78.30
2018-02-18T19:19:59.459Z,77.80
2018-02-18T19:22:37.381Z,78.00
2018-02-18T19:26:15.506Z,78.10
2018-02-18T19:32:12.830Z,79.10
2018-02-18T19:34:57.827Z,79.50
2018-02-18T19:40:43.044Z,80.00
2018-02-18T19:46:31.308Z,81.90
2018-02-18T19:49:41.216Z,82.50
2018-02-18T19:55:58.641Z,82.50
2018-02-18T20:01:47.142Z,83.00
2018-02-18T20:04:41.803Z,82.90
2018-02-18T20:07:19.230Z,82.80
2018-02-18T20:13:18.433Z,82.50
2018-02-18T20:22:05.586Z,83.00
2018-02-18T20:25:00.040Z,83.50
2018-02-18T20:31:07.371Z,84.70
2018-02-18T20:43:48.587Z,84.80
2018-02-18T20:46:32.122Z,84.80
2018-02-18T20:49:29.627Z,85.30
2018-02-18T20:52:08.984Z,85.30
2018-02-18T20:57:27.669Z,85.70
2018-02-18T21:00:04.596Z,85.80
2018-02-18T21:02:48.020Z,85.90
2018-02-18T21:05:20.402Z,86.10
2018-02-18T21:08:01.394Z,86.30
2018-02-18T21:14:07.403Z,86.20
2018-02-18T21:16:56.955Z,86.50
2018-02-18T21:23:39.697Z,86.70
2018-02-18T21:29:40.586Z,86.50
2018-02-18T21:32:11.320Z,87.00
2018-02-18T21:34:54.235Z,87.20
2018-02-18T21:41:12.558Z,87.40
2018-02-18T21:44:00.185Z,87.60
2018-02-18T21:46:47.389Z,87.60
2018-02-18T21:49:30.107Z,88.10
2018-02-18T21:52:39.111Z,88.00
2018-02-18T21:55:37.315Z,88.30
2018-02-18T22:01:35.995Z,88.70
2018-02-18T22:07:32.412Z,88.30
2018-02-18T22:13:02.874Z,89.30
2018-02-18T22:15:53.465Z,89.60
2018-02-18T22:18:40.242Z,89.50
2018-02-18T22:21:26.219Z,90.00
2018-02-18T22:24:20.865Z,90.10
2018-02-18T22:27:05.600Z,90.00
2018-02-18T22:30:01.116Z,90.30
2018-02-18T22:35:49.292Z,90.40
2018-02-18T22:38:35.669Z,90.40
2018-02-18T22:41:24.753Z,90.50
2018-02-18T22:44:39.209Z,90.50
2018-02-18T22:47:40.019Z,90.50
2018-02-18T22:53:44.512Z,90.70
2018-02-18T22:56:26.801Z,90.80
2018-02-18T22:59:16.513Z,90.80
2018-02-18T23:40:11.042Z,90.70
2018-02-18T23:42:54.661Z,90.70
2018-02-18T23:45:27.563Z,90.70
2018-02-18T23:48:06.669Z,90.70
2018-02-18T23:50:38.529Z,90.70
2018-02-18T23:53:13.687Z,90.70
2018-02-18T23:55:52.224Z,90.60
2018-02-18T23:58:30.112Z,90.60
